Friday, January 18, 2019, 2:47 AM EST
Back to Local

KPNE, N.e. Philadelphia Airport

Location: Philadelphia, PA, United States Lat: 40.083
Local Time: 2:47 AM EST ( 7:47 GMT) Lon: -75.017
Time Zone: US/Eastern Elev: 121 ft

Show me the last for .
Show Decoded

2019-01-18 02:09 METAR KPNE 180709Z AUTO 04004KT 1 1/2SM -SN BR OVC023 M01/M03 A3019 RMK AO2
                 P0000 T10111033 =
2019-01-18 01:54 METAR KPNE 180654Z AUTO 05004KT 2SM -SN BR OVC027 M01/M03 A3018 RMK AO2 SLP222
                 P0001 T10111033 =
2019-01-18 01:47 METAR KPNE 180647Z AUTO 04004KT 2 1/2SM -SN OVC027 M01/M04 A3019 RMK AO2 P0001
                 T10111039 =
2019-01-18 01:20 METAR KPNE 180620Z AUTO 05004KT 1 3/4SM -SN BR OVC028 M01/M03 A3019 RMK AO2
                 P0000 T10111033 =
2019-01-18 01:05 METAR KPNE 180605Z AUTO 04003KT 2 1/2SM -SN OVC034 M01/M04 A3020 RMK AO2 P0000
                 T10111039 =
2019-01-18 00:54 METAR KPNE 180554Z AUTO 05004KT 3SM -SN OVC034 M01/M04 A3020 RMK AO2 SLP228
                 P0001 60002 T10111039 10000 21011 58017 =
2019-01-18 00:31 METAR KPNE 180531Z AUTO 05004KT 2SM -SN OVC032 M01/M04 A3021 RMK AO2 P0000
                 T10111039 =
2019-01-18 00:01 METAR KPNE 180501Z AUTO 00000KT 5SM -SN BKN032 OVC044 M01/M04 A3023 RMK AO2
                 P0000 T10061044 =
2019-01-17 23:54 METAR KPNE 180454Z AUTO 00000KT 2 1/2SM -SN FEW028 SCT034 OVC043 M01/M04 A3024
                 RMK AO2 SNB25 SLP239 P0001 T10061044 400171033 =
2019-01-17 23:41 METAR KPNE 180441Z AUTO 00000KT 2 1/2SM -SN SCT029 BKN034 OVC043 M01/M04 A3024
                 RMK AO2 SNB25 P0000 T10061044 =
2019-01-17 23:19 METAR KPNE 180419Z AUTO 03003KT 10SM OVC029 M01/M05 A3024 RMK AO2 T10061050 =
2019-01-17 22:54 METAR KPNE 180354Z AUTO 05003KT 9SM OVC033 M01/M05 A3025 RMK AO2 SNB04E54 SLP243
                 P0000 T10061050 =
2019-01-17 21:54 METAR KPNE 180254Z 12003KT 10SM OVC042 00/M07 A3025 RMK AO2 SLP245 T00001072
                 55020 =
2019-01-17 20:54 METAR KPNE 180154Z 09006KT 10SM BKN060 OVC085 00/M07 A3025 RMK AO2 SLP245
                 T00001072 =
2019-01-17 19:54 METAR KPNE 180054Z 12006KT 10SM FEW050 BKN060 OVC120 00/M07 A3028 RMK AO2 SLP257
                 T00001072 =
2019-01-17 18:54 METAR KPNE 172354Z 13006KT 10SM BKN049 00/M08 A3031 RMK AO2 SLP266 T00001083
                 10011 21006 56002 =
2019-01-17 17:54 METAR KPNE 172254Z 13005KT 10SM CLR 00/M10 A3031 RMK AO2 SLP265 T00001100 =
2019-01-17 16:54 METAR KPNE 172154Z 13004KT 10SM CLR 01/M14 A3031 RMK AO2 SLP263 T00061139 =
2019-01-17 15:54 METAR KPNE 172054Z 14004KT 10SM CLR 01/M14 A3032 RMK AO2 SLP267 T00111144 55018
                 =
2019-01-17 14:54 METAR KPNE 171954Z 10005KT 10SM FEW120 01/M14 A3031 RMK AO2 SLP265 T00061139 =
2019-01-17 13:54 METAR KPNE 171854Z 11003KT 10SM CLR 01/M16 A3035 RMK AO2 SLP277 T00061161 =
2019-01-17 12:54 METAR KPNE 171754Z VRB03KT 10SM CLR 01/M16 A3037 RMK AO2 SLP285 T00061161 10011
                 21033 58020 =
2019-01-17 11:54 METAR KPNE 171654Z 09004KT 10SM CLR 01/M16 A3039 RMK AO2 SLP292 T00061156 =
2019-01-17 10:54 METAR KPNE 171554Z 07004KT 10SM CLR 00/M16 A3043 RMK AO2 SLP306 T00001156 =
2019-01-17 09:54 METAR KPNE 171454Z 02007KT 10SM CLR M01/M15 A3043 RMK AO2 SLP305 T10061150 51014
                 =
2019-01-17 08:54 METAR KPNE 171354Z 03007KT 10SM CLR M02/M13 A3042 RMK AO2 SLP303 T10221128 =
2019-01-17 07:54 METAR KPNE 171254Z 02007KT 10SM CLR M02/M13 A3040 RMK AO2 SLP295 T10221128 $ =
2019-01-17 06:54 METAR KPNE 171154Z 35007KT 10SM CLR M03/M11 A3039 RMK AO2 SLP291 T10331111 10017
                 21033 $ =
2019-01-17 05:54 METAR KPNE 171054Z AUTO 01008KT 10SM CLR M02/M11 A3036 RMK AO2 SLP283 T10171106
                 $ =
2019-01-17 04:54 METAR KPNE 170954Z AUTO 36009KT 10SM CLR M01/M09 A3034 RMK AO2 SLP276 T10111094
                 =
2019-01-17 03:54 METAR KPNE 170854Z AUTO 01009KT 10SM CLR 00/M09 A3033 RMK AO2 SLP271 T00001089
                 51015 =
2019-01-17 02:54 METAR KPNE 170754Z AUTO 36005KT 10SM CLR M01/M09 A3033 RMK AO2 SLP269 T10061094
                 =

Support USWX by starting your Amazon purchase here.